Wetter

Nordholz:

METAR:

2019/02/15 18:20 ETMN 151820Z 18008KT 9999 FEW350 10/01 Q1028 BLU+

TAF:

2019/02/15 15:29 TAF AMD ETMN 151525Z 1515/1521 19008KT 9999 NSW SCT350 CANCEL 1630

Wind EDXN:

15.02. 17:50z 160/09kt
15.02. 18:00z 160/08kt
15.02. 18:10z 160/08kt
15.02. 18:20z 170/07kt
15.02. 18:30z 170/05G08kt
15.02. 18:40z 180/04kt
15.02. 18:50z 180/04kt
15.02. 19:00z 170/04kt
15.02. 19:10z 180/04kt
15.02. 19:20z 180/04kt

Bremen:

METAR:

2019/02/15 18:50 EDDW 151850Z 14006KT CAVOK 08/02 Q1028 NOSIG

TAF:

2019/02/15 18:27 TAF EDDW 151700Z 1518/1618 16005KT CAVOK BECMG 1607/1609 22008KT

Hamburg:

METAR:

2019/02/15 18:50 EDDH 151850Z 15006KT CAVOK 08/M03 Q1028 NOSIG

TAF:

2019/02/15 18:27 TAF EDDH 151700Z 1518/1624 17006KT CAVOK BECMG 1608/1610 23010KT TEMPO 1618/1624 BKN010 PROB30 TEMPO 1620/1624 4000 BR BKN006 BECMG 1622/1624 23005KT

Hannover:

METAR:

2019/02/15 18:50 EDDV 151850Z 14003KT 100V170 CAVOK 09/01 Q1029 NOSIG

TAF:

2019/02/15 18:27 TAF EDDV 151700Z 1518/1618 15005KT CAVOK BECMG 1607/1609 22007KT

Wikipedia Artikel: METARTAF

Daten von Aviation Weather Center der NOAA, es kann keine Garantie für Aktualität und Richtigkeit der Daten übernommen werden.

Die Nutzung dieser Daten zur Flugplanung ist nicht zulässig!

Inoffizielle ATIS 🙂